createdAt,value
2023-02-03T00:00:19.648Z,7.97
2023-02-03T00:02:48.869Z,5.30
2023-02-03T00:05:16.985Z,8.67
2023-02-03T00:07:45.148Z,7.30
2023-02-03T00:10:13.246Z,9.87
2023-02-03T00:12:41.217Z,7.87
2023-02-03T00:15:10.267Z,8.10
2023-02-03T00:17:38.147Z,8.67
2023-02-03T00:20:08.618Z,10.00
2023-02-03T00:22:36.571Z,7.17
2023-02-03T00:25:04.811Z,4.00
2023-02-03T00:27:33.441Z,14.37
2023-02-03T00:30:01.310Z,12.43
2023-02-03T00:32:29.704Z,9.40
2023-02-03T00:34:57.617Z,10.27
2023-02-03T00:37:26.839Z,9.50
2023-02-03T00:39:54.751Z,8.47
2023-02-03T00:42:22.614Z,6.60
2023-02-03T00:44:50.431Z,8.57
2023-02-03T00:47:18.308Z,7.40
2023-02-03T00:49:46.184Z,10.67
2023-02-03T00:52:14.064Z,7.67
2023-02-03T00:54:43.293Z,11.97
2023-02-03T00:57:11.143Z,9.50
2023-02-03T00:59:40.308Z,8.43
2023-02-03T01:02:08.227Z,11.23
2023-02-03T01:04:36.142Z,7.80
2023-02-03T01:07:05.058Z,8.50
2023-02-03T01:09:35.403Z,12.20
2023-02-03T01:12:04.865Z,8.80
2023-02-03T01:14:33.232Z,7.10
2023-02-03T01:17:01.844Z,9.73
2023-02-03T01:19:30.050Z,14.60
2023-02-03T01:21:57.873Z,10.60
2023-02-03T01:24:25.706Z,6.70
2023-02-03T01:26:53.555Z,9.07
2023-02-03T01:29:23.292Z,9.27
2023-02-03T01:31:51.417Z,12.73
2023-02-03T01:34:19.401Z,8.77
2023-02-03T01:36:47.342Z,5.80
2023-02-03T01:39:15.215Z,7.13
2023-02-03T01:41:43.266Z,8.60
2023-02-03T01:44:40.183Z,12.10
2023-02-03T01:47:17.120Z,7.27
2023-02-03T01:49:50.898Z,8.97
2023-02-03T01:52:20.180Z,7.63
2023-02-03T01:54:51.420Z,6.10
2023-02-03T01:57:24.149Z,5.53
2023-02-03T01:59:56.568Z,8.43
2023-02-03T02:02:24.613Z,5.07
2023-02-03T02:04:58.113Z,6.90
2023-02-03T02:07:26.529Z,6.80
2023-02-03T02:09:55.913Z,4.00
2023-02-03T02:12:23.909Z,8.67
2023-02-03T02:14:53.487Z,7.20
2023-02-03T02:17:45.229Z,7.23
2023-02-03T02:20:47.650Z,5.27
2023-02-03T02:23:42.943Z,8.80
2023-02-03T02:26:39.901Z,6.67
2023-02-03T02:29:29.581Z,5.53
2023-02-03T02:32:16.966Z,7.63
2023-02-03T02:34:55.983Z,3.93
2023-02-03T02:37:32.759Z,4.40
2023-02-03T02:40:13.221Z,7.27
2023-02-03T02:42:52.855Z,5.60
2023-02-03T02:45:27.392Z,5.17
2023-02-03T02:48:02.252Z,6.37
2023-02-03T02:50:35.832Z,8.17
2023-02-03T02:53:05.850Z,8.03
2023-02-03T02:55:36.781Z,8.10
2023-02-03T02:58:10.737Z,5.47
2023-02-03T03:00:40.905Z,6.83
2023-02-03T03:03:15.553Z,5.27
2023-02-03T03:05:47.740Z,5.70
2023-02-03T03:08:22.135Z,8.03
2023-02-03T03:10:51.901Z,6.70
2023-02-03T03:13:24.085Z,7.97
2023-02-03T03:15:56.103Z,11.00
2023-02-03T03:18:31.729Z,5.50
2023-02-03T03:21:06.127Z,5.83
2023-02-03T03:23:39.559Z,7.73
2023-02-03T03:26:13.461Z,9.20
2023-02-03T03:28:46.797Z,9.10
2023-02-03T03:31:14.858Z,6.73
2023-02-03T03:33:44.609Z,8.07
2023-02-03T03:36:20.778Z,5.20
2023-02-03T03:38:55.701Z,6.37
2023-02-03T03:41:31.157Z,7.07
2023-02-03T03:44:03.312Z,7.80
2023-02-03T03:46:36.614Z,3.87
2023-02-03T03:49:09.537Z,8.83
2023-02-03T03:51:44.268Z,7.93
2023-02-03T03:54:16.146Z,10.33
2023-02-03T03:56:50.504Z,6.70
2023-02-03T03:59:22.045Z,5.23
2023-02-03T04:01:52.737Z,5.00
2023-02-03T04:04:25.315Z,3.57
2023-02-03T04:06:55.046Z,6.93
2023-02-03T04:09:22.968Z,6.60
2023-02-03T04:12:03.265Z,8.83
2023-02-03T04:14:32.100Z,5.10
2023-02-03T04:17:00.452Z,5.23
2023-02-03T04:19:29.761Z,6.67
2023-02-03T04:21:58.133Z,6.73
2023-02-03T04:24:26.329Z,6.33
2023-02-03T04:26:54.204Z,4.10
2023-02-03T04:29:22.116Z,7.23
2023-02-03T04:31:50.053Z,6.73
2023-02-03T04:34:17.991Z,6.23
2023-02-03T04:36:47.239Z,6.50
2023-02-03T04:39:15.095Z,5.30
2023-02-03T04:41:42.927Z,2.87
2023-02-03T04:44:10.815Z,4.53
2023-02-03T04:46:38.689Z,2.80
2023-02-03T04:49:06.882Z,10.03
2023-02-03T04:51:34.713Z,5.13
2023-02-03T04:54:04.210Z,4.33
2023-02-03T04:56:32.055Z,6.00
2023-02-03T04:58:59.870Z,3.67
2023-02-03T05:01:27.849Z,6.90
2023-02-03T05:03:55.722Z,6.33
2023-02-03T05:06:25.173Z,5.90
2023-02-03T05:08:53.113Z,6.30
2023-02-03T05:11:22.705Z,8.47
2023-02-03T05:13:50.557Z,4.77
2023-02-03T05:16:18.741Z,3.60
2023-02-03T05:18:46.671Z,3.90
2023-02-03T05:21:14.721Z,5.07
2023-02-03T05:23:42.653Z,4.43
2023-02-03T05:26:11.059Z,5.33
2023-02-03T05:28:40.356Z,8.57
2023-02-03T05:31:08.228Z,5.50
2023-02-03T05:33:36.144Z,6.67
2023-02-03T05:36:04.234Z,5.17
2023-02-03T05:38:32.179Z,8.13
2023-02-03T05:41:17.509Z,4.13
2023-02-03T05:43:46.759Z,5.37
2023-02-03T05:46:14.963Z,10.00
2023-02-03T05:48:42.862Z,5.47
2023-02-03T05:51:10.714Z,5.83
2023-02-03T05:53:38.631Z,8.57
2023-02-03T05:56:07.191Z,4.33
2023-02-03T05:58:35.039Z,4.70
2023-02-03T06:01:04.298Z,5.90
2023-02-03T06:03:32.245Z,6.43
2023-02-03T06:06:00.178Z,11.57
2023-02-03T06:08:28.704Z,7.93
2023-02-03T06:10:59.710Z,6.87
2023-02-03T06:13:28.429Z,5.53
2023-02-03T06:15:56.330Z,5.77
2023-02-03T06:18:25.625Z,6.37
2023-02-03T06:20:53.499Z,6.33
2023-02-03T06:23:21.532Z,6.17
2023-02-03T06:25:50.550Z,7.23
2023-02-03T06:28:18.555Z,6.90
2023-02-03T06:30:46.522Z,6.10
2023-02-03T06:33:14.431Z,5.80
2023-02-03T06:35:43.662Z,10.87
2023-02-03T06:38:11.653Z,6.40
2023-02-03T06:40:39.542Z,5.73
2023-02-03T06:43:07.412Z,3.23
2023-02-03T06:45:35.556Z,5.23
2023-02-03T06:48:03.366Z,4.90
2023-02-03T06:50:31.412Z,7.40
2023-02-03T06:53:00.622Z,5.00
2023-02-03T06:55:28.494Z,3.33
2023-02-03T06:57:56.373Z,2.87
2023-02-03T07:00:24.448Z,4.63
2023-02-03T07:02:55.219Z,4.67
2023-02-03T07:05:23.795Z,6.10
2023-02-03T07:07:52.342Z,6.83
2023-02-03T07:10:21.800Z,6.97
2023-02-03T07:12:50.872Z,8.10
2023-02-03T07:15:18.940Z,7.23
2023-02-03T07:17:54.356Z,4.40
2023-02-03T07:20:23.638Z,5.23
2023-02-03T07:22:55.608Z,3.80
2023-02-03T07:25:25.692Z,6.73
2023-02-03T07:27:53.927Z,5.27
2023-02-03T07:30:22.044Z,6.47
2023-02-03T07:32:50.923Z,17.17
2023-02-03T07:35:19.243Z,5.63
2023-02-03T07:37:47.143Z,6.47
2023-02-03T07:40:15.816Z,8.33
2023-02-03T07:42:46.154Z,9.23
2023-02-03T07:45:16.318Z,8.17
2023-02-03T07:47:45.171Z,13.17
2023-02-03T07:50:13.599Z,11.03
2023-02-03T07:52:41.466Z,6.10
2023-02-03T07:55:10.073Z,6.70
2023-02-03T07:57:38.099Z,8.90
2023-02-03T08:00:08.506Z,6.77
2023-02-03T08:02:42.513Z,7.87
2023-02-03T08:05:11.208Z,9.97
2023-02-03T08:07:39.170Z,10.70
2023-02-03T08:10:08.009Z,9.17
2023-02-03T08:12:35.905Z,14.53
2023-02-03T08:15:04.820Z,9.43
2023-02-03T08:17:34.532Z,9.70
2023-02-03T08:20:02.623Z,10.80
2023-02-03T08:22:30.474Z,10.13
2023-02-03T08:24:58.373Z,12.07
2023-02-03T08:27:26.212Z,16.93
2023-02-03T08:29:54.119Z,15.37
2023-02-03T08:32:23.517Z,15.20
2023-02-03T08:34:54.828Z,13.63
2023-02-03T08:37:25.375Z,12.73
2023-02-03T08:39:53.688Z,9.30
2023-02-03T08:42:21.741Z,10.77
2023-02-03T08:44:50.062Z,8.57
2023-02-03T08:47:19.450Z,8.17
2023-02-03T08:49:47.708Z,8.13
2023-02-03T08:52:19.101Z,11.23
2023-02-03T08:54:48.213Z,7.57
2023-02-03T08:57:16.388Z,7.17
2023-02-03T08:59:45.203Z,7.27
2023-02-03T09:02:16.997Z,5.60
2023-02-03T09:04:45.215Z,7.63
2023-02-03T09:07:13.604Z,8.10
2023-02-03T09:09:42.904Z,7.73
2023-02-03T09:12:13.072Z,7.33
2023-02-03T09:14:41.288Z,10.17
2023-02-03T09:17:10.559Z,7.27
2023-02-03T09:19:38.754Z,8.20
2023-02-03T09:22:06.945Z,8.53
2023-02-03T09:24:35.095Z,9.60
2023-02-03T09:27:04.510Z,11.03
2023-02-03T09:29:32.522Z,9.97
2023-02-03T09:32:01.347Z,9.37
2023-02-03T09:34:29.296Z,14.27
2023-02-03T09:36:57.189Z,7.97
2023-02-03T09:39:25.163Z,9.43
2023-02-03T09:42:10.249Z,8.17
2023-02-03T09:44:46.305Z,14.83
2023-02-03T09:47:17.115Z,10.27
2023-02-03T09:49:48.417Z,8.03
2023-02-03T09:52:20.743Z,12.63
2023-02-03T09:54:54.175Z,6.97
2023-02-03T09:57:26.139Z,8.60
2023-02-03T09:59:57.018Z,8.90
2023-02-03T10:02:35.985Z,11.13
2023-02-03T10:05:14.105Z,22.00
2023-02-03T10:07:51.511Z,9.40
2023-02-03T10:10:27.145Z,11.23
2023-02-03T10:13:11.176Z,17.20
2023-02-03T10:15:54.179Z,15.97
2023-02-03T10:18:25.943Z,14.03
2023-02-03T10:20:57.071Z,20.17
2023-02-03T10:23:31.111Z,12.03
2023-02-03T10:26:02.991Z,10.43
2023-02-03T10:28:39.470Z,9.53
2023-02-03T10:31:14.724Z,11.73
2023-02-03T10:33:42.691Z,17.93
2023-02-03T10:36:20.540Z,14.33
2023-02-03T10:39:00.704Z,21.63
2023-02-03T10:41:31.446Z,20.27
2023-02-03T10:44:06.618Z,13.90
2023-02-03T10:46:37.355Z,13.53
2023-02-03T10:49:05.364Z,17.47
2023-02-03T10:51:38.139Z,14.90
2023-02-03T10:54:06.285Z,16.30
2023-02-03T10:56:38.819Z,15.77
2023-02-03T10:59:09.959Z,24.00
2023-02-03T11:01:43.867Z,15.87
2023-02-03T11:04:26.777Z,16.97
2023-02-03T11:07:01.868Z,25.90
2023-02-03T11:09:35.260Z,15.73
2023-02-03T11:12:14.739Z,18.50
2023-02-03T11:14:45.672Z,12.73
2023-02-03T11:17:18.246Z,18.07
2023-02-03T11:19:47.623Z,14.83
2023-02-03T11:22:28.623Z,13.83
2023-02-03T11:24:57.539Z,16.00
2023-02-03T11:27:27.815Z,10.63
2023-02-03T11:30:15.471Z,16.20
2023-02-03T11:32:46.093Z,12.67
2023-02-03T11:35:18.890Z,13.07
2023-02-03T11:37:48.285Z,12.83
2023-02-03T11:40:27.819Z,15.40
2023-02-03T11:43:13.788Z,10.40
2023-02-03T11:45:46.078Z,15.10
2023-02-03T11:48:25.322Z,16.10
2023-02-03T11:51:04.509Z,16.20
2023-02-03T11:53:57.150Z,20.23
2023-02-03T11:56:35.884Z,12.03
2023-02-03T11:59:29.668Z,16.37
2023-02-03T12:02:24.936Z,16.03
2023-02-03T12:05:17.381Z,12.07
2023-02-03T12:07:57.478Z,10.73
2023-02-03T12:10:38.050Z,13.33
2023-02-03T12:13:20.559Z,12.30
2023-02-03T12:16:06.151Z,10.00
2023-02-03T12:18:55.108Z,8.57
2023-02-03T12:21:41.568Z,12.57
2023-02-03T12:24:21.247Z,8.13
2023-02-03T12:26:58.967Z,12.73
2023-02-03T12:29:32.613Z,10.73
2023-02-03T12:32:12.313Z,9.10
2023-02-03T12:34:48.254Z,8.50
2023-02-03T12:37:21.094Z,4.40
2023-02-03T12:39:53.893Z,2.60
2023-02-03T12:42:27.297Z,4.30
2023-02-03T12:45:01.136Z,3.37
2023-02-03T12:47:32.942Z,7.33
2023-02-03T12:50:06.652Z,2.70
2023-02-03T12:52:40.691Z,3.80
2023-02-03T12:55:21.490Z,2.97
2023-02-03T12:57:55.165Z,4.07
2023-02-03T13:00:35.648Z,3.00
2023-02-03T13:03:14.112Z,4.40
2023-02-03T13:05:49.497Z,5.40
2023-02-03T13:08:25.035Z,3.17
2023-02-03T13:10:58.712Z,5.60
2023-02-03T13:13:35.980Z,5.07
2023-02-03T13:16:09.219Z,4.23
2023-02-03T13:18:39.952Z,4.47
2023-02-03T13:21:12.651Z,4.15
2023-02-03T13:23:45.397Z,5.30
2023-02-03T13:26:49.932Z,4.63
2023-02-03T13:29:35.537Z,3.87
2023-02-03T13:32:17.355Z,6.80
2023-02-03T13:34:59.622Z,6.67
2023-02-03T13:37:55.216Z,4.50
2023-02-03T13:40:38.903Z,4.27
2023-02-03T13:43:17.384Z,6.13
2023-02-03T13:45:53.145Z,5.40
2023-02-03T13:48:23.744Z,5.97
2023-02-03T13:51:03.493Z,6.27
2023-02-03T13:53:37.575Z,4.87
2023-02-03T13:56:07.952Z,7.77
2023-02-03T13:58:38.327Z,7.32
2023-02-03T14:01:27.933Z,7.72
2023-02-03T14:03:56.408Z,7.40
2023-02-03T14:07:02.496Z,7.32
2023-02-03T14:10:07.204Z,8.48
2023-02-03T14:12:37.109Z,6.53
2023-02-03T14:15:31.300Z,7.88
2023-02-03T14:18:28.866Z,5.72
2023-02-03T14:21:15.542Z,9.48
2023-02-03T14:23:49.371Z,10.88
2023-02-03T14:26:30.286Z,9.20
2023-02-03T14:28:58.648Z,8.10
2023-02-03T14:31:28.365Z,6.85
2023-02-03T14:34:12.958Z,5.93
2023-02-03T14:36:56.111Z,7.72
2023-02-03T14:39:55.552Z,8.25
2023-02-03T14:42:49.376Z,6.53
2023-02-03T14:45:33.154Z,5.78
2023-02-03T14:48:13.837Z,4.20
2023-02-03T14:50:54.673Z,4.82
2023-02-03T14:53:39.129Z,8.35
2023-02-03T14:56:52.646Z,5.22
2023-02-03T14:59:25.659Z,6.63
2023-02-03T15:02:14.833Z,8.88
2023-02-03T15:04:43.177Z,5.60
2023-02-03T15:07:11.213Z,5.20
2023-02-03T15:09:44.125Z,6.32
2023-02-03T15:12:19.036Z,5.88
2023-02-03T15:14:48.347Z,7.35
2023-02-03T15:17:24.561Z,4.72
2023-02-03T15:19:52.834Z,11.30
2023-02-03T15:22:23.207Z,6.80
2023-02-03T15:24:53.687Z,5.60
2023-02-03T15:27:23.982Z,9.98
2023-02-03T15:29:53.656Z,5.90
2023-02-03T15:32:29.256Z,3.67
2023-02-03T15:34:59.985Z,5.97
2023-02-03T15:37:33.486Z,5.90
2023-02-03T15:40:04.760Z,6.03
2023-02-03T15:42:36.928Z,4.63
2023-02-03T15:45:09.785Z,5.35
2023-02-03T15:47:42.589Z,6.45
2023-02-03T15:50:25.864Z,7.45
2023-02-03T15:52:57.768Z,7.18
2023-02-03T15:55:34.337Z,5.85
2023-02-03T15:58:02.359Z,8.27
2023-02-03T16:00:36.505Z,11.23
2023-02-03T16:03:07.721Z,8.55
2023-02-03T16:05:38.320Z,13.57
2023-02-03T16:08:29.623Z,6.97
2023-02-03T16:10:57.655Z,8.63
2023-02-03T16:13:28.108Z,5.15
2023-02-03T16:16:05.756Z,6.55
2023-02-03T16:18:36.799Z,4.35
2023-02-03T16:21:05.787Z,8.10
2023-02-03T16:23:33.848Z,9.25
2023-02-03T16:26:06.686Z,6.22
2023-02-03T16:28:52.846Z,7.40
2023-02-03T16:31:40.719Z,6.90
2023-02-03T16:34:32.884Z,6.63
2023-02-03T16:37:18.264Z,5.95
2023-02-03T16:40:03.534Z,7.38
2023-02-03T16:42:56.881Z,5.10
2023-02-03T16:45:43.103Z,7.53
2023-02-03T16:48:30.983Z,5.75
2023-02-03T16:51:05.663Z,3.78
2023-02-03T16:53:34.124Z,4.80
2023-02-03T16:56:04.478Z,5.18
2023-02-03T16:58:32.856Z,7.47
2023-02-03T17:01:03.003Z,5.53
2023-02-03T17:03:34.586Z,5.72
2023-02-03T17:06:05.479Z,6.15
2023-02-03T17:08:33.564Z,13.05
2023-02-03T17:11:05.930Z,6.30
2023-02-03T17:13:33.867Z,7.78
2023-02-03T17:16:01.843Z,4.07
2023-02-03T17:18:29.855Z,3.80
2023-02-03T17:21:06.830Z,5.57
2023-02-03T17:23:35.280Z,5.93
2023-02-03T17:26:03.422Z,7.17
2023-02-03T17:28:31.735Z,6.60
2023-02-03T17:31:01.266Z,7.27
2023-02-03T17:33:29.448Z,5.90
2023-02-03T17:36:06.724Z,10.10
2023-02-03T17:55:11.174Z,8.23
2023-02-03T17:57:39.071Z,7.30
2023-02-03T18:00:08.088Z,7.15
2023-02-03T18:02:40.336Z,10.07
2023-02-03T18:05:08.913Z,9.50
2023-02-03T18:07:38.219Z,9.17
2023-02-03T18:10:06.995Z,11.00
2023-02-03T18:12:34.888Z,8.67
2023-02-03T18:15:02.919Z,7.60
2023-02-03T18:17:30.862Z,8.57
2023-02-03T18:20:00.636Z,5.57
2023-02-03T18:22:28.850Z,9.03
2023-02-03T18:24:58.120Z,8.00
2023-02-03T18:27:26.016Z,8.67
2023-02-03T18:29:53.929Z,8.93
2023-02-03T18:32:21.835Z,8.23
2023-02-03T18:34:49.812Z,13.67
2023-02-03T18:37:17.730Z,9.53
2023-02-03T18:39:45.650Z,11.17
2023-02-03T18:42:15.160Z,11.47
2023-02-03T18:44:44.152Z,11.60
2023-02-03T18:47:12.059Z,13.60
2023-02-03T18:49:40.909Z,10.87
2023-02-03T18:52:09.200Z,11.10
2023-02-03T18:54:37.217Z,14.57
2023-02-03T18:57:05.890Z,9.40
2023-02-03T18:59:35.170Z,9.37
2023-02-03T19:02:03.167Z,15.20
2023-02-03T19:04:31.262Z,11.93
2023-02-03T19:06:59.170Z,10.70
2023-02-03T19:09:27.163Z,13.70
2023-02-03T19:11:57.737Z,14.80
2023-02-03T19:14:26.437Z,10.50
2023-02-03T19:16:55.717Z,11.47
2023-02-03T19:19:23.642Z,10.83
2023-02-03T19:21:52.087Z,10.00
2023-02-03T19:24:20.118Z,12.07
2023-02-03T19:26:48.574Z,12.30
2023-02-03T19:29:17.566Z,12.97
2023-02-03T19:31:45.663Z,11.10
2023-02-03T19:34:17.375Z,10.50
2023-02-03T19:36:46.866Z,12.27
2023-02-03T19:39:14.981Z,16.40
2023-02-03T19:41:43.100Z,8.03
2023-02-03T19:44:11.029Z,10.37
2023-02-03T19:46:39.049Z,12.70
2023-02-03T19:49:10.916Z,16.10
2023-02-03T19:51:40.808Z,18.47
2023-02-03T19:54:11.545Z,22.83
2023-02-03T19:56:39.658Z,15.23
2023-02-03T19:59:08.482Z,14.73
2023-02-03T20:01:36.508Z,15.07
2023-02-03T20:04:04.832Z,14.83
2023-02-03T20:06:32.799Z,14.57
2023-02-03T20:09:03.524Z,16.00
2023-02-03T20:11:31.427Z,12.07
2023-02-03T20:13:59.541Z,15.67
2023-02-03T20:16:27.603Z,14.00
2023-02-03T20:18:56.309Z,10.80
2023-02-03T20:21:24.234Z,12.10
2023-02-03T20:23:53.636Z,9.47
2023-02-03T20:26:23.014Z,10.77
2023-02-03T20:28:50.925Z,17.97
2023-02-03T20:31:19.018Z,17.17
2023-02-03T20:33:46.971Z,11.57
2023-02-03T20:36:14.883Z,17.30
2023-02-03T20:38:42.829Z,13.07
2023-02-03T20:41:12.454Z,15.53
2023-02-03T20:43:41.723Z,11.27
2023-02-03T20:46:11.929Z,9.97
2023-02-03T20:48:40.033Z,9.03
2023-02-03T20:51:11.433Z,10.40
2023-02-03T20:53:40.133Z,9.60
2023-02-03T20:56:13.870Z,11.17
2023-02-03T20:58:44.391Z,13.80
2023-02-03T21:01:18.009Z,14.17
2023-02-03T21:04:03.290Z,11.83
2023-02-03T21:06:32.751Z,12.17
2023-02-03T21:09:08.711Z,15.40
2023-02-03T21:11:36.791Z,11.27
2023-02-03T21:14:18.653Z,11.87
2023-02-03T21:16:47.716Z,11.33
2023-02-03T21:19:26.873Z,11.63
2023-02-03T21:21:54.896Z,9.87
2023-02-03T21:24:27.494Z,10.23
2023-02-03T21:26:56.305Z,18.90
2023-02-03T21:29:27.911Z,17.00
2023-02-03T21:31:56.420Z,13.37
2023-02-03T21:34:29.427Z,14.63
2023-02-03T21:36:58.050Z,10.50
2023-02-03T21:39:29.205Z,14.97
2023-02-03T21:41:58.519Z,13.73
2023-02-03T21:44:31.101Z,16.27
2023-02-03T21:47:01.233Z,16.50
2023-02-03T21:49:30.374Z,13.93
2023-02-03T21:51:58.544Z,14.97
2023-02-03T21:54:31.328Z,14.53
2023-02-03T21:56:59.736Z,14.13
2023-02-03T21:59:33.344Z,16.53
2023-02-03T22:02:02.431Z,15.73
2023-02-03T22:04:31.889Z,12.53
2023-02-03T22:06:59.839Z,13.27
2023-02-03T22:09:28.204Z,14.57
2023-02-03T22:11:56.132Z,11.47
2023-02-03T22:14:24.159Z,13.63
2023-02-03T22:16:53.494Z,14.20
2023-02-03T22:19:21.591Z,12.47
2023-02-03T22:21:50.967Z,11.77
2023-02-03T22:24:18.849Z,13.20
2023-02-03T22:26:46.825Z,12.70
2023-02-03T22:29:14.729Z,11.90
2023-02-03T22:31:43.414Z,13.77
2023-02-03T22:34:12.857Z,11.33
2023-02-03T22:36:40.742Z,11.30
2023-02-03T22:39:08.720Z,11.80
2023-02-03T22:41:36.624Z,10.40
2023-02-03T22:44:04.539Z,10.83
2023-02-03T22:46:32.464Z,7.73
2023-02-03T22:49:00.409Z,8.83
2023-02-03T22:51:29.668Z,9.27
2023-02-03T22:53:57.574Z,10.03
2023-02-03T22:56:25.440Z,8.17
2023-02-03T22:58:53.343Z,8.97
2023-02-03T23:01:21.229Z,8.03
2023-02-03T23:03:49.169Z,10.57
2023-02-03T23:06:17.083Z,12.03
2023-02-03T23:08:46.327Z,8.47
2023-02-03T23:11:14.257Z,15.07
2023-02-03T23:13:42.143Z,8.37
2023-02-03T23:16:10.065Z,7.93
2023-02-03T23:18:38.189Z,7.40
2023-02-03T23:21:06.388Z,8.30
2023-02-03T23:23:34.352Z,13.33
2023-02-03T23:26:03.662Z,8.50
2023-02-03T23:28:31.605Z,11.87
2023-02-03T23:30:59.610Z,11.00
2023-02-03T23:33:27.559Z,14.90
2023-02-03T23:35:55.339Z,14.83
2023-02-03T23:38:23.252Z,13.80
2023-02-03T23:40:51.172Z,11.27
2023-02-03T23:43:20.455Z,15.63
2023-02-03T23:45:48.401Z,12.57
2023-02-03T23:48:17.688Z,12.10
2023-02-03T23:50:45.615Z,14.73
2023-02-03T23:53:13.506Z,14.13
2023-02-03T23:55:41.435Z,15.80
2023-02-03T23:58:09.299Z,11.83
